Pacoti, Brazil
Current Conditions -  °F | °C
As of 9:00 AM on Friday 24 Oct 2014 (Local Time) from SBFZ Reporting Station
Broken Clouds Broken Clouds  
Wind Chill: 29°   Ceiling: 2500
Heat Index: 30°   Visibility: 6mi
Dew Point: 18°   Wind: 23mph
Humidity: 51%   Direction: 120°ESE
Pressure: 29.91"   Gusts: NA
Location:  4.23°S, 38.92°W
Report Text: SBFZ 241200Z 12020KT 9999 BKN025 29/18 Q1013
Loading
Personal Weather Stations






























Interactive Weather Map
Tropical Storm Tracking
New forecast layout! Learn more

10-Day Weather Forecast

Advertisements
Track Severe Weather on mobile